createdAt,value
2017-03-16T00:00:30.474Z,98.40
2017-03-16T00:01:32.215Z,98.50
2017-03-16T00:02:31.930Z,98.50
2017-03-16T00:03:33.119Z,98.50
2017-03-16T00:04:34.975Z,98.80
2017-03-16T00:05:34.203Z,98.80
2017-03-16T00:06:36.047Z,98.90
2017-03-16T00:07:41.022Z,98.90
2017-03-16T00:08:42.464Z,98.80
2017-03-16T00:09:42.330Z,98.90
2017-03-16T00:10:43.666Z,99.00
2017-03-16T00:11:43.672Z,99.00
2017-03-16T00:12:43.231Z,98.90
2017-03-16T00:13:44.049Z,98.90
2017-03-16T00:14:46.115Z,99.00
2017-03-16T00:15:47.589Z,99.10
2017-03-16T00:16:47.658Z,98.90
2017-03-16T00:17:46.727Z,98.70
2017-03-16T00:18:48.939Z,98.80
2017-03-16T00:19:49.284Z,99.00
2017-03-16T00:20:55.676Z,99.00
2017-03-16T00:21:55.446Z,98.80
2017-03-16T00:22:56.208Z,98.80
2017-03-16T00:23:58.827Z,98.80
2017-03-16T00:25:00.981Z,98.80
2017-03-16T00:26:00.535Z,98.80
2017-03-16T00:27:00.756Z,98.90
2017-03-16T00:28:01.254Z,99.00
2017-03-16T00:29:02.284Z,99.10
2017-03-16T00:30:03.095Z,99.20
2017-03-16T00:31:03.783Z,99.20
2017-03-16T00:32:04.227Z,99.20
2017-03-16T00:33:04.063Z,99.20
2017-03-16T00:34:05.441Z,99.30
2017-03-16T00:35:06.424Z,99.50
2017-03-16T00:36:08.382Z,99.60
2017-03-16T00:37:08.542Z,99.50
2017-03-16T00:38:09.123Z,99.50
2017-03-16T00:39:11.148Z,99.50
2017-03-16T00:40:10.927Z,99.50
2017-03-16T00:41:11.903Z,99.60
2017-03-16T00:42:13.200Z,99.70
2017-03-16T00:43:13.579Z,99.80
2017-03-16T00:44:18.736Z,99.70
2017-03-16T00:45:20.634Z,99.70
2017-03-16T00:46:24.407Z,99.70
2017-03-16T00:47:25.858Z,99.60
2017-03-16T00:48:27.982Z,99.60
2017-03-16T00:49:28.447Z,99.60
2017-03-16T00:50:28.960Z,99.80
2017-03-16T00:51:31.072Z,99.90
2017-03-16T00:52:31.303Z,99.90
2017-03-16T00:53:31.192Z,99.90
2017-03-16T00:54:33.100Z,99.90
2017-03-16T00:55:32.671Z,99.90
2017-03-16T00:56:34.692Z,99.90
2017-03-16T00:57:35.554Z,99.90
2017-03-16T00:58:36.051Z,99.90
2017-03-16T00:59:37.418Z,99.90
2017-03-16T01:00:38.139Z,99.90
2017-03-16T01:01:39.386Z,99.90
2017-03-16T01:02:39.746Z,99.90
2017-03-16T01:03:42.425Z,99.90
2017-03-16T01:04:44.820Z,99.90
2017-03-16T01:05:46.961Z,99.90
2017-03-16T01:06:46.662Z,99.90
2017-03-16T01:07:47.380Z,99.90
2017-03-16T01:08:46.770Z,99.90
2017-03-16T01:09:47.767Z,99.90
2017-03-16T01:10:48.351Z,99.90
2017-03-16T01:11:50.834Z,99.90
2017-03-16T01:12:49.938Z,99.90
2017-03-16T01:13:50.059Z,99.90
2017-03-16T01:14:49.715Z,99.90
2017-03-16T01:15:51.596Z,99.90
2017-03-16T01:16:52.975Z,99.90
2017-03-16T01:17:53.253Z,99.90
2017-03-16T01:18:54.877Z,99.90
2017-03-16T01:20:00.196Z,99.90
2017-03-16T01:21:01.771Z,99.90
2017-03-16T01:22:01.208Z,99.90
2017-03-16T01:23:00.558Z,99.90
2017-03-16T01:24:02.528Z,99.90
2017-03-16T01:25:03.383Z,99.90
2017-03-16T01:26:05.995Z,99.90
2017-03-16T01:27:07.413Z,99.90
2017-03-16T01:28:08.663Z,99.90
2017-03-16T01:29:10.931Z,99.90
2017-03-16T01:30:11.318Z,99.90
2017-03-16T01:31:13.048Z,99.90
2017-03-16T01:32:16.792Z,99.90
2017-03-16T01:33:16.519Z,99.90
2017-03-16T01:34:21.275Z,99.90
2017-03-16T01:35:21.178Z,99.90
2017-03-16T01:36:21.215Z,99.90
2017-03-16T01:37:20.627Z,99.90
2017-03-16T01:38:19.755Z,99.90
2017-03-16T01:39:22.712Z,99.90
2017-03-16T01:40:22.579Z,99.90
2017-03-16T01:41:21.787Z,99.90
2017-03-16T01:42:22.120Z,99.90
2017-03-16T01:43:22.487Z,99.90
2017-03-16T01:44:22.120Z,99.90
2017-03-16T01:45:25.348Z,99.90
2017-03-16T01:46:27.567Z,99.90
2017-03-16T01:47:28.824Z,99.90
2017-03-16T01:48:29.704Z,99.90
2017-03-16T01:49:32.315Z,99.90
2017-03-16T01:50:34.124Z,99.90
2017-03-16T01:51:33.955Z,99.90
2017-03-16T01:52:33.020Z,99.90
2017-03-16T01:53:32.984Z,99.90
2017-03-16T01:54:33.071Z,99.90
2017-03-16T01:55:34.731Z,99.90
2017-03-16T01:56:35.179Z,99.90
2017-03-16T01:57:35.964Z,99.90
2017-03-16T01:58:40.956Z,99.90
2017-03-16T01:59:41.265Z,99.90
2017-03-16T02:00:43.732Z,99.90
2017-03-16T02:01:43.578Z,99.90
2017-03-16T02:02:43.011Z,99.90
2017-03-16T02:03:43.535Z,99.90
2017-03-16T02:04:44.227Z,99.90
2017-03-16T02:05:43.414Z,99.90
2017-03-16T02:06:44.883Z,99.90
2017-03-16T02:07:58.663Z,99.90
2017-03-16T02:09:19.710Z,99.90
2017-03-16T02:10:22.629Z,99.90
2017-03-16T02:11:26.219Z,99.90
2017-03-16T02:12:28.091Z,99.90
2017-03-16T02:13:27.854Z,99.90
2017-03-16T02:14:27.308Z,99.90
2017-03-16T02:15:29.631Z,99.90
2017-03-16T02:16:32.668Z,99.90
2017-03-16T02:17:33.499Z,99.90
2017-03-16T02:18:34.019Z,99.90
2017-03-16T02:19:34.318Z,99.90
2017-03-16T02:20:35.899Z,99.90
2017-03-16T02:21:38.333Z,99.90
2017-03-16T02:22:39.607Z,99.90
2017-03-16T02:23:39.667Z,99.90
2017-03-16T02:24:40.868Z,99.90
2017-03-16T02:25:44.572Z,99.90
2017-03-16T02:26:48.022Z,99.90
2017-03-16T02:27:49.011Z,99.90
2017-03-16T02:28:49.187Z,99.90
2017-03-16T02:29:51.652Z,99.90
2017-03-16T02:30:52.749Z,99.90
2017-03-16T02:31:52.957Z,99.90
2017-03-16T02:32:54.095Z,99.90
2017-03-16T02:33:55.593Z,99.90
2017-03-16T02:34:55.692Z,99.90
2017-03-16T02:35:56.877Z,99.90
2017-03-16T02:37:01.360Z,99.90
2017-03-16T02:38:01.658Z,99.90
2017-03-16T02:39:02.580Z,99.90
2017-03-16T02:40:03.114Z,99.90
2017-03-16T02:41:05.003Z,99.90
2017-03-16T02:42:06.631Z,99.90
2017-03-16T02:43:07.166Z,99.90
2017-03-16T02:44:06.526Z,99.90
2017-03-16T02:45:06.328Z,99.90
2017-03-16T02:46:08.108Z,99.90
2017-03-16T02:47:09.508Z,99.90
2017-03-16T02:48:11.015Z,99.90
2017-03-16T02:49:12.335Z,99.90
2017-03-16T02:50:15.849Z,99.90
2017-03-16T02:51:18.213Z,99.90
2017-03-16T02:52:20.261Z,99.90
2017-03-16T02:53:21.771Z,99.90
2017-03-16T02:54:22.453Z,99.90
2017-03-16T02:55:25.349Z,99.90
2017-03-16T02:56:27.852Z,99.90
2017-03-16T02:57:27.832Z,99.90
2017-03-16T02:58:29.096Z,99.90
2017-03-16T02:59:32.435Z,99.90
2017-03-16T03:00:35.767Z,99.90
2017-03-16T03:01:36.899Z,99.90
2017-03-16T03:02:40.120Z,99.90
2017-03-16T03:03:43.779Z,99.90
2017-03-16T03:04:46.397Z,99.90
2017-03-16T03:05:46.679Z,99.90
2017-03-16T03:06:46.782Z,99.90
2017-03-16T03:07:46.363Z,99.90
2017-03-16T03:08:47.906Z,99.90
2017-03-16T03:09:51.824Z,99.90
2017-03-16T03:10:54.072Z,99.90
2017-03-16T03:11:54.556Z,99.90
2017-03-16T03:12:54.652Z,99.90
2017-03-16T03:13:58.620Z,99.90
2017-03-16T03:15:01.255Z,99.90
2017-03-16T03:16:03.125Z,99.90
2017-03-16T03:17:03.491Z,99.90
2017-03-16T03:18:03.275Z,99.90
2017-03-16T03:19:04.060Z,99.90
2017-03-16T03:20:04.452Z,99.90
2017-03-16T03:21:04.078Z,99.90
2017-03-16T03:22:05.614Z,99.90
2017-03-16T03:23:05.906Z,99.90
2017-03-16T03:24:07.915Z,99.90
2017-03-16T03:25:09.592Z,99.90
2017-03-16T03:26:11.355Z,99.90
2017-03-16T03:27:13.027Z,99.90
2017-03-16T03:28:18.613Z,99.90
2017-03-16T03:29:19.497Z,99.90
2017-03-16T03:30:20.424Z,99.90
2017-03-16T03:31:20.148Z,99.90
2017-03-16T03:32:20.043Z,99.90
2017-03-16T03:33:20.573Z,99.90
2017-03-16T03:34:21.132Z,99.90
2017-03-16T03:35:21.523Z,99.90
2017-03-16T03:36:22.196Z,99.90
2017-03-16T03:37:24.507Z,99.90
2017-03-16T03:38:25.231Z,99.90
2017-03-16T03:39:26.755Z,99.90
2017-03-16T03:40:26.239Z,99.90
2017-03-16T03:41:27.096Z,99.90
2017-03-16T03:42:31.209Z,99.90
2017-03-16T03:43:31.547Z,99.90
2017-03-16T03:44:32.377Z,99.90
2017-03-16T03:45:33.243Z,99.90
2017-03-16T03:46:33.671Z,99.90
2017-03-16T03:47:35.727Z,99.90
2017-03-16T03:48:36.049Z,99.80
2017-03-16T03:49:36.456Z,99.90
2017-03-16T03:50:40.601Z,99.90
2017-03-16T03:51:41.979Z,99.90
2017-03-16T03:52:45.262Z,99.80
2017-03-16T03:53:47.567Z,99.60
2017-03-16T03:54:50.295Z,99.60
2017-03-16T03:55:50.187Z,99.90
2017-03-16T03:56:50.153Z,99.90
2017-03-16T03:57:52.782Z,99.90
2017-03-16T03:58:53.123Z,99.90
2017-03-16T03:59:53.724Z,99.90
2017-03-16T04:00:54.559Z,99.90
2017-03-16T04:01:55.242Z,99.90
2017-03-16T04:02:57.832Z,99.90
2017-03-16T04:03:59.598Z,99.90
2017-03-16T04:04:59.773Z,99.90
2017-03-16T04:06:01.639Z,99.90
2017-03-16T04:07:02.007Z,99.90
2017-03-16T04:08:01.947Z,99.90
2017-03-16T04:09:03.216Z,99.90
2017-03-16T04:10:04.232Z,99.90
2017-03-16T04:11:06.448Z,99.90
2017-03-16T04:12:08.092Z,99.90
2017-03-16T04:13:08.473Z,99.90
2017-03-16T04:14:08.767Z,99.90
2017-03-16T04:15:08.082Z,99.90
2017-03-16T04:16:10.287Z,99.90
2017-03-16T04:17:11.132Z,99.90
2017-03-16T04:18:11.538Z,99.90
2017-03-16T04:19:12.462Z,99.90
2017-03-16T04:20:11.783Z,99.90
2017-03-16T04:21:13.608Z,99.90
2017-03-16T04:22:13.884Z,99.90
2017-03-16T04:23:13.868Z,99.90
2017-03-16T04:24:14.264Z,99.90
2017-03-16T04:25:13.732Z,99.90
2017-03-16T04:26:15.672Z,99.90
2017-03-16T04:27:16.125Z,99.90
2017-03-16T04:28:19.930Z,99.90
2017-03-16T04:29:20.334Z,99.90
2017-03-16T04:30:19.655Z,99.90
2017-03-16T04:31:19.163Z,99.90
2017-03-16T04:32:21.848Z,99.90
2017-03-16T04:33:24.164Z,99.90
2017-03-16T04:34:25.269Z,99.90
2017-03-16T04:35:27.355Z,99.90
2017-03-16T04:36:28.639Z,99.90
2017-03-16T04:37:28.094Z,99.90
2017-03-16T04:38:29.163Z,99.90
2017-03-16T04:39:32.531Z,99.90
2017-03-16T04:40:32.599Z,99.70
2017-03-16T04:41:35.180Z,99.60
2017-03-16T04:42:34.799Z,99.60
2017-03-16T04:43:36.132Z,99.50
2017-03-16T04:44:37.241Z,99.60
2017-03-16T04:45:40.231Z,99.80
2017-03-16T04:46:40.540Z,99.70
2017-03-16T04:47:40.849Z,99.60
2017-03-16T04:48:42.579Z,99.80
2017-03-16T04:49:43.424Z,99.50
2017-03-16T04:50:45.404Z,99.50
2017-03-16T04:51:44.724Z,99.80
2017-03-16T04:52:48.291Z,99.80
2017-03-16T04:53:51.399Z,99.90
2017-03-16T04:54:52.392Z,99.90
2017-03-16T04:55:52.587Z,99.90
2017-03-16T04:56:52.331Z,99.90
2017-03-16T04:57:52.590Z,99.90
2017-03-16T04:58:53.843Z,99.90
2017-03-16T04:59:53.744Z,99.90
2017-03-16T05:00:53.054Z,99.90
2017-03-16T05:01:53.223Z,99.90
2017-03-16T05:02:56.120Z,99.90
2017-03-16T05:03:56.079Z,99.60
2017-03-16T05:04:57.284Z,99.70
2017-03-16T05:05:56.961Z,99.80
2017-03-16T05:06:56.559Z,99.90
2017-03-16T05:08:03.365Z,99.80
2017-03-16T05:09:04.863Z,99.90
2017-03-16T05:10:05.204Z,99.90
2017-03-16T05:11:07.138Z,99.90
2017-03-16T05:12:07.864Z,99.90
2017-03-16T05:13:09.447Z,99.90
2017-03-16T05:14:13.512Z,99.90
2017-03-16T05:15:14.700Z,99.90
2017-03-16T05:16:15.262Z,99.90
2017-03-16T05:17:16.603Z,99.90
2017-03-16T05:18:19.069Z,99.90
2017-03-16T05:19:19.984Z,99.90
2017-03-16T05:20:18.907Z,99.90
2017-03-16T05:21:19.983Z,99.90
2017-03-16T05:22:21.916Z,99.90
2017-03-16T05:23:22.475Z,99.90
2017-03-16T05:24:23.163Z,99.90
2017-03-16T05:25:22.980Z,99.90
2017-03-16T05:26:22.652Z,99.90
2017-03-16T05:27:22.930Z,99.90
2017-03-16T05:28:25.085Z,99.90
2017-03-16T05:29:28.217Z,99.90
2017-03-16T05:30:28.731Z,99.70
2017-03-16T05:31:30.380Z,99.80
2017-03-16T05:32:31.716Z,99.60
2017-03-16T05:33:32.568Z,99.70
2017-03-16T05:34:33.419Z,99.30
2017-03-16T05:35:35.891Z,99.30
2017-03-16T05:36:35.900Z,99.30
2017-03-16T05:37:36.584Z,99.60
2017-03-16T05:38:37.297Z,99.50
2017-03-16T05:39:38.183Z,99.90
2017-03-16T05:40:38.272Z,99.90
2017-03-16T05:41:39.559Z,99.90
2017-03-16T05:42:42.490Z,99.90
2017-03-16T05:43:42.583Z,99.90
2017-03-16T05:44:43.120Z,99.90
2017-03-16T05:45:44.153Z,99.90
2017-03-16T05:46:43.606Z,99.90
2017-03-16T05:47:43.509Z,99.90
2017-03-16T05:48:44.731Z,99.90
2017-03-16T05:49:44.507Z,99.90
2017-03-16T05:50:46.184Z,99.90
2017-03-16T05:51:47.084Z,99.90
2017-03-16T05:52:49.521Z,99.90
2017-03-16T05:53:49.188Z,99.90
2017-03-16T05:54:49.491Z,99.90
2017-03-16T05:55:49.503Z,99.90
2017-03-16T05:56:49.717Z,99.90
2017-03-16T05:57:48.819Z,99.90
2017-03-16T05:58:49.812Z,99.90
2017-03-16T05:59:51.804Z,99.90
2017-03-16T06:00:54.421Z,99.90
2017-03-16T06:01:55.447Z,99.90
2017-03-16T06:02:55.984Z,99.90
2017-03-16T06:03:56.368Z,99.90
2017-03-16T06:04:59.142Z,99.90
2017-03-16T06:05:59.067Z,99.90
2017-03-16T06:06:59.111Z,99.90
2017-03-16T06:07:59.570Z,99.90
2017-03-16T06:09:00.855Z,99.90
2017-03-16T06:10:00.515Z,99.90
2017-03-16T06:11:02.973Z,99.90
2017-03-16T06:12:02.226Z,99.90
2017-03-16T06:13:03.361Z,99.90
2017-03-16T06:14:06.804Z,99.90
2017-03-16T06:15:08.123Z,99.90
2017-03-16T06:16:08.159Z,99.90
2017-03-16T06:17:08.051Z,99.90
2017-03-16T06:18:10.983Z,99.90
2017-03-16T06:19:14.031Z,99.90
2017-03-16T06:20:13.904Z,99.90
2017-03-16T06:21:15.263Z,99.90
2017-03-16T06:22:15.524Z,99.90
2017-03-16T06:23:15.860Z,99.90
2017-03-16T06:24:16.319Z,99.90
2017-03-16T06:25:20.172Z,99.90
2017-03-16T06:26:21.836Z,99.90
2017-03-16T06:27:23.179Z,99.90
2017-03-16T06:28:23.436Z,99.90
2017-03-16T06:29:26.676Z,99.90
2017-03-16T06:30:27.148Z,99.90
2017-03-16T06:31:28.644Z,99.90
2017-03-16T06:32:29.541Z,99.90
2017-03-16T06:33:29.016Z,99.90
2017-03-16T06:34:30.937Z,99.90
2017-03-16T06:35:30.704Z,99.90
2017-03-16T06:36:32.027Z,99.90
2017-03-16T06:37:36.509Z,99.90
2017-03-16T06:38:36.284Z,99.90
2017-03-16T06:39:35.916Z,99.90
2017-03-16T06:40:37.508Z,99.90
2017-03-16T06:41:39.632Z,99.90
2017-03-16T06:42:41.241Z,99.90
2017-03-16T06:43:42.997Z,99.90
2017-03-16T06:44:44.812Z,99.90
2017-03-16T06:45:45.856Z,99.90
2017-03-16T06:46:47.049Z,99.70
2017-03-16T06:47:50.320Z,99.60
2017-03-16T06:48:51.560Z,99.60
2017-03-16T06:49:51.272Z,99.60
2017-03-16T06:50:50.744Z,99.60
2017-03-16T06:51:51.807Z,99.50
2017-03-16T06:52:51.336Z,99.20
2017-03-16T06:53:51.417Z,97.40
2017-03-16T06:54:54.431Z,97.40
2017-03-16T06:55:53.955Z,97.60
2017-03-16T06:56:53.444Z,97.80
2017-03-16T06:57:55.229Z,97.00
2017-03-16T06:58:57.342Z,96.80
2017-03-16T06:59:58.789Z,97.00
2017-03-16T07:01:01.328Z,97.00
2017-03-16T07:02:01.651Z,97.10
2017-03-16T07:03:02.620Z,97.30
2017-03-16T07:04:03.343Z,96.90
2017-03-16T07:05:07.225Z,97.40
2017-03-16T07:06:08.643Z,97.50
2017-03-16T07:07:12.828Z,97.20
2017-03-16T07:08:13.644Z,97.00
2017-03-16T07:09:15.684Z,96.60
2017-03-16T07:10:17.868Z,96.40
2017-03-16T07:11:20.043Z,96.40
2017-03-16T07:12:20.750Z,96.10
2017-03-16T07:13:21.223Z,96.20
2017-03-16T07:14:21.212Z,95.90
2017-03-16T07:15:23.363Z,95.90
2017-03-16T07:16:25.140Z,95.50
2017-03-16T07:17:25.505Z,94.90
2017-03-16T07:18:28.472Z,94.90
2017-03-16T07:19:29.855Z,95.20
2017-03-16T07:20:30.843Z,94.90
2017-03-16T07:21:32.521Z,94.90
2017-03-16T07:22:33.315Z,94.90
2017-03-16T07:23:33.816Z,94.70
2017-03-16T07:24:38.979Z,94.70
2017-03-16T07:25:39.512Z,94.60
2017-03-16T07:26:39.410Z,94.60
2017-03-16T07:27:39.574Z,94.50
2017-03-16T07:28:42.976Z,94.50
2017-03-16T07:29:46.892Z,94.90
2017-03-16T07:30:47.076Z,94.70
2017-03-16T07:31:48.120Z,94.20
2017-03-16T07:32:48.913Z,94.10
2017-03-16T07:33:52.296Z,94.60
2017-03-16T07:34:54.283Z,93.70
2017-03-16T07:35:55.924Z,93.70
2017-03-16T07:36:56.164Z,93.80
2017-03-16T07:37:58.044Z,93.70
2017-03-16T07:38:59.031Z,93.60
2017-03-16T07:40:02.298Z,94.00
2017-03-16T07:41:03.017Z,93.70
2017-03-16T07:42:06.515Z,93.20
2017-03-16T07:43:07.853Z,92.80
2017-03-16T07:44:08.092Z,92.80
2017-03-16T07:45:10.779Z,92.50
2017-03-16T07:46:12.047Z,92.70
2017-03-16T07:47:11.328Z,92.70
2017-03-16T07:48:12.483Z,92.80
2017-03-16T07:49:13.063Z,92.80
2017-03-16T07:50:12.575Z,92.30
2017-03-16T07:51:13.233Z,92.00
2017-03-16T07:52:14.164Z,92.10
2017-03-16T07:53:14.812Z,92.10
2017-03-16T07:54:16.468Z,92.10
2017-03-16T07:55:18.067Z,92.10
2017-03-16T07:56:17.298Z,91.90
2017-03-16T07:57:20.024Z,91.50
2017-03-16T07:58:20.199Z,91.00
2017-03-16T07:59:22.164Z,91.30
2017-03-16T08:00:23.028Z,91.30
2017-03-16T08:01:23.172Z,90.90
2017-03-16T08:02:38.263Z,90.90
2017-03-16T08:03:39.979Z,90.70
2017-03-16T08:04:40.468Z,90.90
2017-03-16T08:05:45.567Z,90.60
2017-03-16T08:06:47.096Z,90.50
2017-03-16T08:07:46.487Z,90.80
2017-03-16T08:08:46.908Z,90.70
2017-03-16T08:09:46.883Z,90.70
2017-03-16T08:10:47.872Z,89.80
2017-03-16T08:11:47.727Z,89.40
2017-03-16T08:12:49.296Z,89.70
2017-03-16T08:13:50.483Z,88.70
2017-03-16T08:14:50.500Z,89.00
2017-03-16T08:15:50.604Z,89.00
2017-03-16T08:16:49.897Z,89.10
2017-03-16T08:17:52.132Z,88.90
2017-03-16T08:18:53.882Z,88.40
2017-03-16T08:19:54.336Z,88.90
2017-03-16T08:20:56.284Z,88.10
2017-03-16T08:22:00.239Z,87.90
2017-03-16T08:23:00.671Z,87.70
2017-03-16T08:24:01.021Z,87.70
2017-03-16T08:25:03.029Z,87.50
2017-03-16T08:26:03.055Z,87.70
2017-03-16T08:27:06.451Z,88.40
2017-03-16T08:28:07.783Z,87.90
2017-03-16T08:29:09.618Z,87.10
2017-03-16T08:30:11.827Z,87.50
2017-03-16T08:31:13.224Z,87.30
2017-03-16T08:32:15.850Z,87.10
2017-03-16T08:33:22.456Z,87.30
2017-03-16T08:34:25.539Z,87.40
2017-03-16T08:35:28.043Z,87.50
2017-03-16T08:36:30.278Z,87.40
2017-03-16T08:37:30.350Z,87.20
2017-03-16T08:38:30.001Z,87.20
2017-03-16T08:39:30.656Z,86.40
2017-03-16T08:40:30.911Z,86.30
2017-03-16T08:41:31.412Z,86.30
2017-03-16T08:42:31.103Z,85.80
2017-03-16T08:43:32.757Z,85.50
2017-03-16T08:44:36.619Z,85.50
2017-03-16T08:45:35.566Z,85.10
2017-03-16T08:46:38.601Z,85.00
2017-03-16T08:47:40.596Z,85.30
2017-03-16T08:48:41.783Z,85.40
2017-03-16T08:49:41.488Z,85.40
2017-03-16T08:50:42.232Z,85.20
2017-03-16T08:51:42.620Z,84.90
2017-03-16T08:52:43.449Z,84.70
2017-03-16T08:53:43.975Z,84.70
2017-03-16T08:54:46.063Z,85.60
2017-03-16T08:55:47.401Z,84.50
2017-03-16T08:56:47.846Z,84.50
2017-03-16T08:57:48.146Z,84.50
2017-03-16T08:58:47.707Z,85.10
2017-03-16T08:59:47.189Z,84.90
2017-03-16T09:00:47.003Z,84.70
2017-03-16T09:01:49.391Z,84.60
2017-03-16T09:02:50.440Z,84.20
2017-03-16T09:03:52.478Z,84.10
2017-03-16T09:04:54.500Z,83.10
2017-03-16T09:05:58.250Z,83.30
2017-03-16T09:06:57.391Z,82.90
2017-03-16T09:07:57.880Z,82.80
2017-03-16T09:08:58.387Z,83.20
2017-03-16T09:09:58.904Z,82.80
2017-03-16T09:11:00.878Z,82.80
2017-03-16T09:12:03.145Z,83.10
2017-03-16T09:13:03.189Z,83.00
2017-03-16T09:14:07.279Z,83.30
2017-03-16T09:15:09.210Z,83.60
2017-03-16T09:16:10.491Z,83.00
2017-03-16T09:17:12.544Z,83.20
2017-03-16T09:18:14.039Z,82.70
2017-03-16T09:19:15.576Z,82.00
2017-03-16T09:20:15.086Z,82.30
2017-03-16T09:21:15.048Z,82.30
2017-03-16T09:22:16.624Z,82.00
2017-03-16T09:23:16.367Z,80.90
2017-03-16T09:24:16.509Z,80.90
2017-03-16T09:25:18.127Z,80.30
2017-03-16T09:26:19.267Z,80.50
2017-03-16T09:27:19.472Z,79.70
2017-03-16T09:28:19.939Z,80.90
2017-03-16T09:29:20.521Z,80.90
2017-03-16T09:30:22.044Z,81.80
2017-03-16T09:31:22.104Z,81.80
2017-03-16T09:32:23.278Z,80.70
2017-03-16T09:33:23.932Z,80.70
2017-03-16T09:34:24.727Z,79.50
2017-03-16T09:35:25.390Z,79.60
2017-03-16T09:36:28.656Z,80.00
2017-03-16T09:37:31.916Z,80.00
2017-03-16T09:38:34.220Z,79.40
2017-03-16T09:39:33.223Z,78.80
2017-03-16T09:40:33.567Z,78.50
2017-03-16T09:41:36.784Z,78.50
2017-03-16T09:42:38.180Z,78.20
2017-03-16T09:43:38.252Z,78.10
2017-03-16T09:44:39.079Z,78.10
2017-03-16T09:45:42.254Z,78.10
2017-03-16T09:46:43.803Z,77.50
2017-03-16T09:47:45.033Z,77.30
2017-03-16T09:48:46.001Z,77.30
2017-03-16T09:49:47.131Z,77.30
2017-03-16T09:50:50.872Z,77.10
2017-03-16T09:51:52.819Z,77.00
2017-03-16T09:52:53.383Z,77.20
2017-03-16T09:53:54.727Z,76.20
2017-03-16T09:54:55.731Z,77.20
2017-03-16T09:55:55.964Z,77.10
2017-03-16T09:56:55.388Z,78.10
2017-03-16T09:57:55.907Z,77.50
2017-03-16T09:58:58.063Z,76.90
2017-03-16T09:59:59.187Z,76.90
2017-03-16T10:01:01.012Z,76.10
2017-03-16T10:02:04.068Z,75.20
2017-03-16T10:03:04.202Z,76.00
2017-03-16T10:04:06.589Z,75.80
2017-03-16T10:05:06.716Z,75.40
2017-03-16T10:06:07.914Z,75.40
2017-03-16T10:07:08.571Z,75.30
2017-03-16T10:08:09.068Z,74.50
2017-03-16T10:09:10.575Z,74.00
2017-03-16T10:10:13.529Z,74.80
2017-03-16T10:11:15.915Z,74.30
2017-03-16T10:12:17.732Z,74.30
2017-03-16T10:13:21.968Z,74.40
2017-03-16T10:14:24.367Z,74.10
2017-03-16T10:15:27.387Z,74.20
2017-03-16T10:16:30.204Z,74.80
2017-03-16T10:17:32.940Z,76.10
2017-03-16T10:18:35.881Z,75.10
2017-03-16T10:19:37.134Z,74.60
2017-03-16T10:20:39.269Z,74.40
2017-03-16T10:21:39.444Z,73.60
2017-03-16T10:22:40.433Z,72.90
2017-03-16T10:23:41.288Z,72.90
2017-03-16T10:24:41.319Z,73.00
2017-03-16T10:25:41.676Z,73.50
2017-03-16T10:26:43.134Z,74.10
2017-03-16T10:27:43.967Z,73.10
2017-03-16T10:28:44.918Z,72.00
2017-03-16T10:29:47.681Z,72.00
2017-03-16T10:30:48.999Z,71.30
2017-03-16T10:31:52.516Z,70.40
2017-03-16T10:32:55.796Z,70.70
2017-03-16T10:33:56.147Z,69.50
2017-03-16T10:34:56.251Z,69.10
2017-03-16T10:35:58.211Z,69.10
2017-03-16T10:37:01.264Z,70.70
2017-03-16T10:38:03.426Z,70.10
2017-03-16T10:39:06.027Z,68.90
2017-03-16T10:40:07.911Z,64.50
2017-03-16T10:41:09.902Z,62.90
2017-03-16T10:42:12.023Z,62.00
2017-03-16T10:43:12.932Z,62.00
2017-03-16T10:44:15.875Z,62.00
2017-03-16T10:45:15.663Z,61.40
2017-03-16T10:46:16.693Z,61.80
2017-03-16T10:47:17.307Z,62.40
2017-03-16T10:48:19.224Z,59.10
2017-03-16T10:49:20.991Z,57.60
2017-03-16T10:50:20.648Z,57.70
2017-03-16T10:51:21.082Z,59.10
2017-03-16T10:52:24.807Z,59.50
2017-03-16T10:53:27.403Z,59.30
2017-03-16T10:54:30.285Z,61.10
2017-03-16T10:55:30.160Z,59.20
2017-03-16T10:56:32.744Z,59.10
2017-03-16T10:57:34.623Z,58.60
2017-03-16T10:58:35.016Z,59.00
2017-03-16T10:59:36.029Z,58.90
2017-03-16T11:00:36.754Z,58.00
2017-03-16T11:01:37.475Z,58.30
2017-03-16T11:02:40.556Z,59.10
2017-03-16T11:03:41.388Z,59.00
2017-03-16T11:04:41.575Z,58.50
2017-03-16T11:05:41.907Z,58.20
2017-03-16T11:06:42.768Z,57.20
2017-03-16T11:07:43.643Z,54.70
2017-03-16T11:08:46.147Z,55.20
2017-03-16T11:09:45.983Z,55.00
2017-03-16T11:10:46.867Z,56.50
2017-03-16T11:11:50.051Z,54.80
2017-03-16T11:12:54.164Z,54.50
2017-03-16T11:13:53.407Z,54.50
2017-03-16T11:14:54.368Z,55.90
2017-03-16T11:15:54.869Z,54.70
2017-03-16T11:16:56.045Z,54.20
2017-03-16T11:17:59.280Z,54.40
2017-03-16T11:18:59.343Z,54.70
2017-03-16T11:19:59.617Z,53.90
2017-03-16T11:21:02.500Z,55.90
2017-03-16T11:22:03.916Z,56.80
2017-03-16T11:23:06.075Z,55.10
2017-03-16T11:24:05.651Z,54.20
2017-03-16T11:25:10.788Z,53.80
2017-03-16T11:26:12.987Z,54.50
2017-03-16T11:27:15.204Z,54.80
2017-03-16T11:28:17.935Z,53.40
2017-03-16T11:29:21.195Z,55.00
2017-03-16T11:30:21.211Z,54.10
2017-03-16T11:31:21.598Z,53.00
2017-03-16T11:32:21.965Z,52.10
2017-03-16T11:33:23.354Z,53.40
2017-03-16T11:34:23.779Z,53.50
2017-03-16T11:35:23.997Z,53.00
2017-03-16T11:36:24.284Z,53.00
2017-03-16T11:37:23.924Z,52.00
2017-03-16T11:38:24.203Z,50.70
2017-03-16T11:39:24.749Z,50.70
2017-03-16T11:40:25.117Z,50.30
2017-03-16T11:41:26.643Z,50.50
2017-03-16T11:42:30.199Z,51.90
2017-03-16T11:43:30.594Z,51.90
2017-03-16T11:44:31.547Z,52.20
2017-03-16T11:45:31.831Z,52.40
2017-03-16T11:46:32.715Z,52.40
2017-03-16T11:47:33.101Z,51.70
2017-03-16T11:48:33.398Z,51.50
2017-03-16T11:49:33.351Z,52.70
2017-03-16T11:50:33.529Z,51.70
2017-03-16T11:51:35.643Z,51.70
2017-03-16T11:52:35.924Z,51.10
2017-03-16T11:53:37.653Z,51.50
2017-03-16T11:54:38.421Z,51.50
2017-03-16T11:55:40.643Z,50.80
2017-03-16T11:56:44.275Z,49.30
2017-03-16T11:57:46.079Z,49.50
2017-03-16T11:58:47.858Z,49.20
2017-03-16T11:59:50.323Z,49.80
2017-03-16T12:00:50.974Z,49.60
2017-03-16T12:01:53.483Z,49.50
2017-03-16T12:02:53.331Z,46.70
2017-03-16T12:03:54.071Z,42.50
2017-03-16T12:04:56.371Z,42.50
2017-03-16T12:05:57.272Z,45.80
2017-03-16T12:06:58.492Z,46.80
2017-03-16T12:07:59.555Z,46.80
2017-03-16T12:09:00.598Z,45.50
2017-03-16T12:10:03.460Z,44.90
2017-03-16T12:11:05.332Z,43.70
2017-03-16T12:12:06.458Z,44.60
2017-03-16T12:13:05.624Z,45.80
2017-03-16T12:14:08.404Z,43.70
2017-03-16T12:15:07.823Z,39.70
2017-03-16T12:16:10.691Z,39.90
2017-03-16T12:17:09.907Z,39.90
2017-03-16T12:18:11.231Z,40.80
2017-03-16T12:19:12.449Z,43.20
2017-03-16T12:20:13.781Z,43.40
2017-03-16T12:21:14.487Z,42.30
2017-03-16T12:22:17.307Z,41.10
2017-03-16T12:23:20.158Z,41.10
2017-03-16T12:24:21.964Z,40.50
2017-03-16T12:25:22.567Z,39.80
2017-03-16T12:26:23.239Z,41.00
2017-03-16T12:27:24.591Z,39.30
2017-03-16T12:28:24.336Z,37.70
2017-03-16T12:29:25.831Z,36.50
2017-03-16T12:30:25.722Z,36.60
2017-03-16T12:31:25.948Z,36.30
2017-03-16T12:32:26.520Z,38.70
2017-03-16T12:33:27.778Z,39.50
2017-03-16T12:34:31.156Z,39.80
2017-03-16T12:35:37.995Z,39.30
2017-03-16T12:36:38.063Z,33.40
2017-03-16T12:37:41.060Z,29.90
2017-03-16T12:38:43.749Z,30.50
2017-03-16T12:39:45.086Z,34.50
2017-03-16T12:40:48.015Z,38.70
2017-03-16T12:41:48.453Z,38.30
2017-03-16T12:42:48.642Z,37.90
2017-03-16T12:43:48.505Z,38.50
2017-03-16T12:44:49.431Z,38.20
2017-03-16T12:45:51.155Z,38.30
2017-03-16T12:46:53.320Z,37.20
2017-03-16T12:47:56.359Z,39.00
2017-03-16T12:49:00.291Z,39.80
2017-03-16T12:50:02.509Z,41.00
2017-03-16T12:51:03.676Z,41.30
2017-03-16T12:52:04.828Z,41.30
2017-03-16T12:53:05.807Z,41.80
2017-03-16T12:54:08.567Z,42.10
2017-03-16T12:55:11.021Z,42.10
2017-03-16T12:56:13.674Z,42.90
2017-03-16T12:57:15.494Z,43.30
2017-03-16T12:58:15.071Z,41.40
2017-03-16T12:59:15.099Z,41.20
2017-03-16T13:00:15.512Z,41.70
2017-03-16T13:01:15.178Z,41.10
2017-03-16T13:02:14.679Z,40.70
2017-03-16T13:03:16.560Z,41.20
2017-03-16T13:04:18.448Z,41.10
2017-03-16T13:05:21.760Z,41.50
2017-03-16T13:06:24.780Z,43.60
2017-03-16T13:07:25.635Z,43.40
2017-03-16T13:08:25.751Z,44.20
2017-03-16T13:09:27.543Z,43.30